createdAt,value
2022-08-05T00:00:18.548Z,940
2022-08-05T00:02:18.672Z,925
2022-08-05T00:03:18.420Z,951
2022-08-05T00:04:18.460Z,959
2022-08-05T00:05:27.304Z,951
2022-08-05T00:07:21.919Z,757
2022-08-05T00:08:20.106Z,927
2022-08-05T00:09:19.419Z,951
2022-08-05T00:10:18.434Z,660
2022-08-05T00:12:18.598Z,683
2022-08-05T00:13:18.647Z,688
2022-08-05T00:14:18.325Z,927
2022-08-05T00:15:54.748Z,935
2022-08-05T00:17:19.631Z,935
2022-08-05T00:18:21.464Z,918
2022-08-05T00:19:18.344Z,925
2022-08-05T00:20:20.285Z,925
2022-08-05T00:22:18.623Z,627
2022-08-05T00:23:23.744Z,665
2022-08-05T00:24:19.072Z,964
2022-08-05T00:25:18.344Z,935
2022-08-05T00:27:18.605Z,857
2022-08-05T00:28:21.085Z,918
2022-08-05T00:29:18.312Z,930
2022-08-05T00:30:18.338Z,534
2022-08-05T00:32:18.602Z,964
2022-08-05T00:34:43.069Z,686
2022-08-05T00:34:43.276Z,918
2022-08-05T00:35:18.436Z,675
2022-08-05T00:37:18.762Z,925
2022-08-05T00:38:18.432Z,972
2022-08-05T00:39:18.509Z,981
2022-08-05T00:40:26.497Z,954
2022-08-05T00:42:31.361Z,961
2022-08-05T00:43:18.319Z,935
2022-08-05T00:44:18.448Z,918
2022-08-05T00:45:24.928Z,889
2022-08-05T00:47:18.616Z,678
2022-08-05T00:48:18.444Z,987
2022-08-05T00:49:18.444Z,1035
2022-08-05T00:50:18.466Z,748
2022-08-05T00:52:18.623Z,1019
2022-08-05T00:53:45.603Z,848
2022-08-05T00:54:18.346Z,672
2022-08-05T00:55:18.882Z,1001
2022-08-05T00:57:21.314Z,1017
2022-08-05T00:58:19.104Z,1001
2022-08-05T00:59:18.364Z,1017
2022-08-05T01:00:19.961Z,754
2022-08-05T01:02:18.630Z,1050
2022-08-05T01:03:22.436Z,748
2022-08-05T01:04:20.031Z,757
2022-08-05T01:05:18.369Z,1041
2022-08-05T01:07:18.646Z,1041
2022-08-05T01:08:30.097Z,1035
2022-08-05T01:09:19.934Z,1041
2022-08-05T01:10:18.369Z,945
2022-08-05T01:12:19.156Z,1035
2022-08-05T01:13:19.563Z,1053
2022-08-05T01:14:18.360Z,1012
2022-08-05T01:15:35.952Z,757
2022-08-05T01:17:18.670Z,690
2022-08-05T01:18:18.357Z,694
2022-08-05T01:19:18.368Z,951
2022-08-05T01:20:18.337Z,951
2022-08-05T01:22:18.733Z,942
2022-08-05T01:23:22.854Z,1041
2022-08-05T01:24:18.348Z,802
2022-08-05T01:25:18.380Z,759
2022-08-05T01:27:19.568Z,712
2022-08-05T01:28:18.475Z,997
2022-08-05T01:29:18.454Z,1041
2022-08-05T01:30:18.942Z,1007
2022-08-05T01:32:18.872Z,802
2022-08-05T01:33:19.589Z,714
2022-08-05T01:34:18.490Z,742
2022-08-05T01:35:50.396Z,972
2022-08-05T01:37:24.920Z,987
2022-08-05T01:38:24.624Z,930
2022-08-05T01:39:36.944Z,846
2022-08-05T01:40:18.478Z,909
2022-08-05T01:42:18.665Z,672
2022-08-05T01:43:22.177Z,706
2022-08-05T01:44:18.364Z,977
2022-08-05T01:45:18.347Z,987
2022-08-05T01:47:18.675Z,959
2022-08-05T01:48:18.350Z,935
2022-08-05T01:49:23.449Z,712
2022-08-05T01:50:18.355Z,712
2022-08-05T01:52:19.101Z,959
2022-08-05T01:53:42.199Z,977
2022-08-05T01:54:18.478Z,594
2022-08-05T01:55:18.483Z,882
2022-08-05T01:58:18.481Z,935
2022-08-05T01:58:18.845Z,930
2022-08-05T01:59:18.511Z,945
2022-08-05T02:00:18.481Z,933
2022-08-05T02:02:18.682Z,830
2022-08-05T02:03:24.688Z,945
2022-08-05T02:04:18.500Z,933
2022-08-05T02:05:18.479Z,909
2022-08-05T02:07:21.815Z,933
2022-08-05T02:08:20.080Z,935
2022-08-05T02:09:20.523Z,956
2022-08-05T02:10:18.453Z,688
2022-08-05T02:12:18.687Z,649
2022-08-05T02:13:18.363Z,933
2022-08-05T02:14:18.414Z,935
2022-08-05T02:15:19.581Z,915
2022-08-05T02:17:30.079Z,933
2022-08-05T02:18:29.290Z,637
2022-08-05T02:19:18.401Z,913
2022-08-05T02:20:20.458Z,945
2022-08-05T02:22:26.041Z,913
2022-08-05T02:23:18.399Z,692
2022-08-05T02:24:18.392Z,956
2022-08-05T02:25:18.400Z,692
2022-08-05T02:27:18.674Z,935
2022-08-05T02:28:28.523Z,945
2022-08-05T02:29:21.420Z,956
2022-08-05T02:30:18.366Z,682
2022-08-05T02:32:19.707Z,675
2022-08-05T02:33:24.244Z,688
2022-08-05T02:34:18.394Z,925
2022-08-05T02:35:18.942Z,935
2022-08-05T02:37:18.676Z,682
2022-08-05T02:38:19.138Z,737
2022-08-05T02:39:18.392Z,1035
2022-08-05T02:40:18.392Z,909
2022-08-05T02:42:20.894Z,997
2022-08-05T02:43:18.420Z,925
2022-08-05T02:44:18.376Z,863
2022-08-05T02:45:18.374Z,925
2022-08-05T02:47:18.683Z,981
2022-08-05T02:48:18.391Z,951
2022-08-05T02:49:18.376Z,940
2022-08-05T02:50:18.394Z,702
2022-08-05T02:52:26.152Z,951
2022-08-05T02:53:19.257Z,763
2022-08-05T02:54:34.583Z,1077
2022-08-05T02:55:52.332Z,1050
2022-08-05T02:58:08.837Z,768
2022-08-05T02:58:20.287Z,776
2022-08-05T02:59:18.380Z,774
2022-08-05T03:00:18.407Z,1029
2022-08-05T03:02:18.680Z,1053
2022-08-05T03:03:18.505Z,1041
2022-08-05T03:04:18.412Z,757
2022-08-05T03:05:21.736Z,702
2022-08-05T03:07:24.757Z,774
2022-08-05T03:08:19.587Z,1029
2022-08-05T03:09:27.266Z,1029
2022-08-05T03:10:21.901Z,1050
2022-08-05T03:12:18.714Z,763
2022-08-05T03:13:18.576Z,1035
2022-08-05T03:14:18.503Z,1047
2022-08-05T03:15:18.503Z,1093
2022-08-05T03:17:20.063Z,757
2022-08-05T03:18:18.416Z,763
2022-08-05T03:19:29.445Z,972
2022-08-05T03:20:18.505Z,1035
2022-08-05T03:22:18.972Z,1004
2022-08-05T03:23:18.413Z,1047
2022-08-05T03:24:18.396Z,757
2022-08-05T03:25:32.355Z,949
2022-08-05T03:27:18.705Z,817
2022-08-05T03:28:19.673Z,956
2022-08-05T03:29:18.517Z,699
2022-08-05T03:30:18.537Z,949
2022-08-05T03:32:18.713Z,949
2022-08-05T03:33:18.418Z,977
2022-08-05T03:34:18.423Z,995
2022-08-05T03:35:18.400Z,995
2022-08-05T03:37:18.727Z,744
2022-08-05T03:38:23.981Z,719
2022-08-05T03:39:19.986Z,708
2022-08-05T03:40:24.564Z,700
2022-08-05T03:42:18.728Z,964
2022-08-05T03:43:59.400Z,1056
2022-08-05T03:44:19.763Z,1038
2022-08-05T03:45:22.259Z,765
2022-08-05T03:47:18.727Z,780
2022-08-05T03:48:19.796Z,970
2022-08-05T03:49:18.425Z,956
2022-08-05T03:50:18.401Z,838
2022-08-05T03:52:36.303Z,981
2022-08-05T03:55:00.703Z,700
2022-08-05T03:55:00.880Z,956
2022-08-05T03:56:02.045Z,714
2022-08-05T03:56:27.987Z,1004
2022-08-05T03:57:18.729Z,700
2022-08-05T03:58:18.401Z,970
2022-08-05T03:59:20.296Z,970
2022-08-05T04:00:18.406Z,964
2022-08-05T04:02:37.995Z,728
2022-08-05T04:03:26.820Z,983
2022-08-05T04:04:21.059Z,733
2022-08-05T04:05:18.539Z,733
2022-08-05T04:07:18.728Z,983
2022-08-05T04:08:29.968Z,733
2022-08-05T04:09:20.152Z,1004
2022-08-05T04:10:18.417Z,995
2022-08-05T04:12:23.831Z,737
2022-08-05T04:13:18.415Z,737
2022-08-05T04:14:18.440Z,995
2022-08-05T04:15:18.437Z,733
2022-08-05T04:16:23.960Z,1012
2022-08-05T04:17:18.752Z,744
2022-08-05T04:18:20.446Z,913
2022-08-05T04:19:18.521Z,927
2022-08-05T04:20:18.446Z,954
2022-08-05T04:22:05.435Z,920
2022-08-05T04:22:20.389Z,927
2022-08-05T04:23:18.420Z,967
2022-08-05T04:24:18.984Z,956
2022-08-05T04:25:18.439Z,949
2022-08-05T04:26:18.430Z,997
2022-08-05T04:27:19.122Z,967
2022-08-05T04:28:18.455Z,942
2022-08-05T04:29:18.454Z,690
2022-08-05T04:30:18.457Z,712
2022-08-05T04:31:18.457Z,933
2022-08-05T04:32:20.074Z,961
2022-08-05T04:33:20.564Z,726
2022-08-05T04:34:33.190Z,981
2022-08-05T04:35:19.715Z,975
2022-08-05T04:36:38.748Z,981
2022-08-05T04:37:18.722Z,967
2022-08-05T04:38:18.460Z,880
2022-08-05T04:39:18.525Z,880
2022-08-05T04:40:19.563Z,923
2022-08-05T04:41:18.473Z,650
2022-08-05T04:42:18.721Z,827
2022-08-05T04:43:18.458Z,674
2022-08-05T04:44:21.087Z,900
2022-08-05T04:45:23.140Z,659
2022-08-05T04:46:27.716Z,699
2022-08-05T04:47:18.779Z,674
2022-08-05T04:48:27.771Z,656
2022-08-05T04:49:18.430Z,629
2022-08-05T04:50:34.278Z,656
2022-08-05T04:51:18.457Z,615
2022-08-05T04:52:18.804Z,656
2022-08-05T04:53:18.465Z,897
2022-08-05T04:54:18.432Z,983
2022-08-05T04:55:21.133Z,737
2022-08-05T04:56:32.739Z,1001
2022-08-05T04:57:18.740Z,1060
2022-08-05T04:58:20.204Z,1029
2022-08-05T04:59:22.538Z,1065
2022-08-05T05:00:18.471Z,825
2022-08-05T05:01:33.960Z,785
2022-08-05T05:02:35.855Z,763
2022-08-05T05:03:20.414Z,990
2022-08-05T05:04:18.572Z,981
2022-08-05T05:05:26.744Z,990
2022-08-05T05:06:35.566Z,728
2022-08-05T05:07:18.763Z,956
2022-08-05T05:08:26.778Z,961
2022-08-05T05:09:18.582Z,961
2022-08-05T05:10:18.561Z,682
2022-08-05T05:11:18.458Z,945
2022-08-05T05:12:18.738Z,682
2022-08-05T05:13:18.473Z,659
2022-08-05T05:14:18.441Z,640
2022-08-05T05:15:54.589Z,895
2022-08-05T05:16:19.694Z,907
2022-08-05T05:17:21.320Z,646
2022-08-05T05:18:28.803Z,810
2022-08-05T05:19:19.069Z,810
2022-08-05T05:20:18.448Z,806
2022-08-05T05:21:18.470Z,578
2022-08-05T05:22:23.299Z,798
2022-08-05T05:23:19.676Z,514
2022-08-05T05:24:18.477Z,744
2022-08-05T05:25:18.468Z,526
2022-08-05T05:26:18.458Z,706
2022-08-05T05:27:18.745Z,749
2022-08-05T05:28:18.471Z,733
2022-08-05T05:29:18.479Z,740
2022-08-05T05:30:28.989Z,733
2022-08-05T05:31:18.601Z,749
2022-08-05T05:32:18.755Z,652
2022-08-05T05:33:23.099Z,483
2022-08-05T05:34:23.956Z,660
2022-08-05T05:35:18.849Z,660
2022-08-05T05:37:18.761Z,476
2022-08-05T05:38:22.257Z,534
2022-08-05T05:39:19.227Z,594
2022-08-05T05:40:18.486Z,566
2022-08-05T05:42:18.780Z,591
2022-08-05T05:43:22.052Z,416
2022-08-05T05:44:36.196Z,570
2022-08-05T05:45:18.569Z,486
2022-08-05T05:47:21.438Z,618
2022-08-05T05:48:18.602Z,478
2022-08-05T05:49:22.758Z,653
2022-08-05T05:50:19.594Z,653
2022-08-05T05:52:26.545Z,452
2022-08-05T05:53:21.728Z,638
2022-08-05T05:54:18.507Z,715
2022-08-05T05:55:18.475Z,515
2022-08-05T05:57:18.980Z,505
2022-08-05T05:58:18.472Z,671
2022-08-05T05:59:18.465Z,671
2022-08-05T06:00:18.476Z,660
2022-08-05T06:02:31.022Z,686
2022-08-05T06:03:28.449Z,487
2022-08-05T06:04:18.561Z,483
2022-08-05T06:05:18.495Z,692
2022-08-05T06:07:22.370Z,678
2022-08-05T06:08:31.739Z,640
2022-08-05T06:09:25.556Z,640
2022-08-05T06:10:18.520Z,482
2022-08-05T06:12:19.599Z,640
2022-08-05T06:13:18.617Z,591
2022-08-05T06:14:18.503Z,572
2022-08-05T06:15:23.870Z,657
2022-08-05T06:17:22.797Z,529
2022-08-05T06:18:18.482Z,485
2022-08-05T06:19:25.970Z,649
2022-08-05T06:20:18.781Z,672
2022-08-05T06:22:18.801Z,485
2022-08-05T06:23:18.513Z,660
2022-08-05T06:24:18.512Z,400
2022-08-05T06:25:24.790Z,600
2022-08-05T06:28:09.676Z,857
2022-08-05T06:28:20.745Z,614
2022-08-05T06:29:24.763Z,599
2022-08-05T06:30:20.211Z,594
2022-08-05T06:32:21.636Z,880
2022-08-05T06:33:19.120Z,846
2022-08-05T06:34:20.007Z,612
2022-08-05T06:35:22.181Z,597
2022-08-05T06:37:39.284Z,617
2022-08-05T06:38:18.490Z,518
2022-08-05T06:39:18.563Z,441
2022-08-05T06:40:21.288Z,744
2022-08-05T06:42:18.813Z,740
2022-08-05T06:43:51.929Z,770
2022-08-05T06:44:18.524Z,763
2022-08-05T06:45:20.987Z,780
2022-08-05T06:47:30.164Z,564
2022-08-05T06:48:37.453Z,527
2022-08-05T06:49:18.877Z,780
2022-08-05T06:50:18.630Z,748
2022-08-05T06:52:36.511Z,545
2022-08-05T06:53:19.683Z,533
2022-08-05T06:54:19.161Z,488
2022-08-05T06:55:18.526Z,548
2022-08-05T06:57:57.086Z,787
2022-08-05T06:58:20.554Z,752
2022-08-05T06:59:18.503Z,768
2022-08-05T07:00:22.368Z,508
2022-08-05T07:02:18.803Z,503
2022-08-05T07:03:18.531Z,710
2022-08-05T07:04:19.173Z,825
2022-08-05T07:05:19.614Z,834
2022-08-05T07:07:23.947Z,840
2022-08-05T07:08:18.529Z,870
2022-08-05T07:09:18.623Z,877
2022-08-05T07:10:18.639Z,846
2022-08-05T07:12:18.833Z,846
2022-08-05T07:13:57.297Z,813
2022-08-05T07:14:20.340Z,900
2022-08-05T07:15:34.277Z,882
2022-08-05T07:17:57.744Z,612
2022-08-05T07:18:21.212Z,565
2022-08-05T07:19:36.475Z,798
2022-08-05T07:20:34.231Z,752
2022-08-05T07:22:18.812Z,728
2022-08-05T07:23:26.003Z,485
2022-08-05T07:24:18.544Z,498
2022-08-05T07:25:24.161Z,730
2022-08-05T07:27:18.883Z,715
2022-08-05T07:28:18.639Z,704
2022-08-05T07:29:18.649Z,699
2022-08-05T07:30:23.008Z,614
2022-08-05T07:32:18.823Z,704
2022-08-05T07:33:18.544Z,726
2022-08-05T07:34:21.134Z,712
2022-08-05T07:35:56.518Z,496
2022-08-05T07:37:18.821Z,740
2022-08-05T07:38:25.371Z,679
2022-08-05T07:39:24.516Z,447
2022-08-05T07:40:27.225Z,444
2022-08-05T07:42:18.865Z,488
2022-08-05T07:43:20.566Z,742
2022-08-05T07:44:19.568Z,772
2022-08-05T07:45:18.670Z,708
2022-08-05T07:47:18.828Z,539
2022-08-05T07:49:01.202Z,487
2022-08-05T07:49:18.753Z,417
2022-08-05T07:50:18.672Z,519
2022-08-05T07:52:18.834Z,551
2022-08-05T07:53:18.587Z,565
2022-08-05T07:54:18.694Z,851
2022-08-05T07:55:44.707Z,806
2022-08-05T07:57:41.635Z,602
2022-08-05T07:58:54.600Z,925
2022-08-05T07:59:22.013Z,956
2022-08-05T08:00:18.657Z,949
2022-08-05T08:02:18.873Z,1029
2022-08-05T08:03:18.536Z,1086
2022-08-05T08:04:22.280Z,870
2022-08-05T08:05:18.654Z,1131
2022-08-05T08:07:18.906Z,1224
2022-08-05T08:08:19.738Z,1215
2022-08-05T08:09:19.683Z,1248
2022-08-05T08:10:20.396Z,1281
2022-08-05T08:12:30.802Z,945
2022-08-05T08:13:21.809Z,1047
2022-08-05T08:14:18.988Z,1594
2022-08-05T08:15:37.491Z,1584
2022-08-05T08:17:18.873Z,1081
2022-08-05T08:18:20.715Z,1077
2022-08-05T08:19:38.036Z,1102
2022-08-05T08:20:23.303Z,1558
2022-08-05T08:22:18.847Z,1090
2022-08-05T08:24:00.884Z,1830
2022-08-05T08:24:18.670Z,1830
2022-08-05T08:25:26.675Z,1905
2022-08-05T08:27:18.851Z,1890
2022-08-05T08:28:35.859Z,1787
2022-08-05T08:29:22.343Z,1825
2022-08-05T08:30:30.315Z,1921
2022-08-05T08:32:18.884Z,1961
2022-08-05T08:33:19.087Z,1840
2022-08-05T08:34:18.939Z,1955
2022-08-05T08:35:18.686Z,2017
2022-08-05T08:37:18.953Z,2226
2022-08-05T08:38:18.598Z,2116
2022-08-05T08:39:18.609Z,2001
2022-08-05T08:40:18.594Z,2140
2022-08-05T08:42:32.667Z,2140
2022-08-05T08:43:21.164Z,1507
2022-08-05T08:45:21.912Z,2195
2022-08-05T08:45:26.474Z,1630
2022-08-05T08:47:22.132Z,2793
2022-08-05T08:48:22.653Z,2140
2022-08-05T08:50:08.078Z,2265
2022-08-05T08:50:33.335Z,3505
2022-08-05T08:52:18.866Z,3443
2022-08-05T08:53:18.629Z,3607
2022-08-05T08:54:18.594Z,3607
2022-08-05T08:55:19.414Z,3835
2022-08-05T08:57:18.879Z,3968
2022-08-05T08:58:18.605Z,4056
2022-08-05T08:59:19.289Z,4250
2022-08-05T09:00:19.369Z,4315
2022-08-05T09:02:19.048Z,4186
2022-08-05T09:03:19.296Z,5598
2022-08-05T09:04:18.626Z,3734
2022-08-05T09:05:18.637Z,6116
2022-08-05T09:07:19.486Z,3597
2022-08-05T09:08:18.600Z,3231
2022-08-05T09:09:18.703Z,3854
2022-08-05T09:10:18.711Z,6116
2022-08-05T09:12:20.317Z,6368
2022-08-05T09:13:18.736Z,5630
2022-08-05T09:14:55.143Z,3755
2022-08-05T09:15:18.632Z,6273
2022-08-05T09:17:41.539Z,4262
2022-08-05T09:18:18.597Z,4478
2022-08-05T09:19:18.710Z,4729
2022-08-05T09:20:21.136Z,7820
2022-08-05T09:22:23.537Z,7992
2022-08-05T09:23:21.486Z,6635
2022-08-05T09:24:18.631Z,5101
2022-08-05T09:25:23.770Z,7985
2022-08-05T09:27:18.936Z,6745
2022-08-05T09:28:21.119Z,4556
2022-08-05T09:29:18.756Z,7362
2022-08-05T09:30:18.690Z,7589
2022-08-05T09:32:49.954Z,7985
2022-08-05T09:33:18.620Z,4988
2022-08-05T09:34:18.637Z,7285
2022-08-05T09:35:20.105Z,5267
2022-08-05T09:37:18.894Z,7490
2022-08-05T09:38:27.284Z,7730
2022-08-05T09:39:22.137Z,7985
2022-08-05T09:40:18.676Z,5322
2022-08-05T09:42:23.786Z,7832
2022-08-05T09:43:18.722Z,7327
2022-08-05T09:44:18.730Z,7752
2022-08-05T09:46:05.515Z,7992
2022-08-05T09:47:20.404Z,7992
2022-08-05T09:48:18.601Z,5658
2022-08-05T09:49:19.339Z,7985
2022-08-05T09:50:38.376Z,7524
2022-08-05T09:52:18.902Z,5515
2022-08-05T09:53:23.283Z,5016
2022-08-05T09:54:21.300Z,5614
2022-08-05T09:55:56.072Z,7985
2022-08-05T09:57:20.748Z,7768
2022-08-05T09:58:18.638Z,7086
2022-08-05T09:59:18.631Z,5054
2022-08-05T10:00:18.623Z,5252
2022-08-05T10:02:20.462Z,7503
2022-08-05T10:03:18.644Z,7649
2022-08-05T10:04:18.632Z,5337
2022-08-05T10:05:18.613Z,7869
2022-08-05T10:07:20.648Z,7876
2022-08-05T10:08:35.631Z,5060
2022-08-05T10:09:25.254Z,5125
2022-08-05T10:10:18.686Z,7462
2022-08-05T10:12:31.176Z,7462
2022-08-05T10:13:18.647Z,5445
2022-08-05T10:14:18.636Z,7504
2022-08-05T10:15:20.501Z,7412
2022-08-05T10:17:37.094Z,5658
2022-08-05T10:18:18.751Z,5515
2022-08-05T10:19:18.653Z,7656
2022-08-05T10:20:18.643Z,7861
2022-08-05T10:22:29.665Z,5734
2022-08-05T10:23:22.084Z,5358
2022-08-05T10:24:18.752Z,5430
2022-08-05T10:25:18.666Z,7641
2022-08-05T10:27:18.965Z,7854
2022-08-05T10:28:19.714Z,7384
2022-08-05T10:29:23.766Z,7271
2022-08-05T10:30:41.775Z,6661
2022-08-05T10:32:51.303Z,7051
2022-08-05T10:33:18.645Z,7985
2022-08-05T10:34:18.641Z,7992
2022-08-05T10:35:18.748Z,5762
2022-08-05T10:37:18.928Z,7861
2022-08-05T10:38:18.646Z,4916
2022-08-05T10:39:24.118Z,7018
2022-08-05T10:40:18.739Z,4734
2022-08-05T10:42:18.961Z,5192
2022-08-05T10:43:18.631Z,7490
2022-08-05T10:44:18.753Z,5545
2022-08-05T10:45:21.628Z,5620
2022-08-05T10:47:26.324Z,5615
2022-08-05T10:48:29.308Z,4765
2022-08-05T10:49:18.666Z,6555
2022-08-05T10:50:21.043Z,6654
2022-08-05T10:52:18.925Z,5097
2022-08-05T10:53:18.633Z,7292
2022-08-05T10:54:23.290Z,7292
2022-08-05T10:55:18.669Z,5358
2022-08-05T10:57:18.962Z,7201
2022-08-05T10:58:18.675Z,5630
2022-08-05T11:00:01.404Z,6771
2022-08-05T11:00:19.973Z,7791
2022-08-05T11:02:35.105Z,7899
2022-08-05T11:03:24.153Z,7285
2022-08-05T11:04:18.669Z,7510
2022-08-05T11:05:18.636Z,5571
2022-08-05T11:07:18.962Z,7761
2022-08-05T11:08:33.965Z,5702
2022-08-05T11:09:18.779Z,5878
2022-08-05T11:10:18.677Z,7828
2022-08-05T11:12:18.948Z,5691
2022-08-05T11:13:18.658Z,7004
2022-08-05T11:14:18.754Z,7113
2022-08-05T11:15:19.904Z,5327
2022-08-05T11:17:56.714Z,6380
2022-08-05T11:18:18.670Z,6991
2022-08-05T11:20:09.772Z,7931
2022-08-05T11:20:18.857Z,7992
2022-08-05T11:22:18.982Z,7992
2022-08-05T11:23:18.647Z,7715
2022-08-05T11:24:30.477Z,5767
2022-08-05T11:26:03.808Z,6823
2022-08-05T11:27:18.968Z,5609
2022-08-05T11:28:18.925Z,7984
2022-08-05T11:29:18.661Z,7649
2022-08-05T11:30:18.670Z,5652
2022-08-05T11:32:18.982Z,7768
2022-08-05T11:33:21.025Z,5918
2022-08-05T11:34:22.568Z,7670
2022-08-05T11:35:18.702Z,7768
2022-08-05T11:38:27.049Z,5756
2022-08-05T11:38:27.589Z,7907
2022-08-05T11:39:18.794Z,5509
2022-08-05T11:40:18.686Z,5674
2022-08-05T11:42:18.959Z,5587
2022-08-05T11:43:18.658Z,5509
2022-08-05T11:44:21.488Z,7362
2022-08-05T11:45:23.467Z,5587
2022-08-05T11:47:21.911Z,6738
2022-08-05T11:48:18.689Z,5599
2022-08-05T11:49:18.696Z,7708
2022-08-05T11:50:18.691Z,7708
2022-08-05T11:52:19.027Z,7992
2022-08-05T11:53:18.672Z,7560
2022-08-05T11:54:18.787Z,7663
2022-08-05T11:55:18.718Z,7419
2022-08-05T11:57:24.648Z,5292
2022-08-05T11:58:18.712Z,7589
2022-08-05T11:59:21.150Z,5832
2022-08-05T12:00:18.790Z,5992
2022-08-05T12:02:24.323Z,6003
2022-08-05T12:03:24.223Z,7746
2022-08-05T12:04:18.716Z,5843
2022-08-05T12:05:18.725Z,7854
2022-08-05T12:07:18.995Z,5923
2022-08-05T12:08:18.785Z,7869
2022-08-05T12:09:19.884Z,7854
2022-08-05T12:10:18.700Z,7985
2022-08-05T12:12:18.984Z,5734
2022-08-05T12:13:28.372Z,6924
2022-08-05T12:14:18.788Z,7133
2022-08-05T12:15:18.798Z,5348
2022-08-05T12:17:36.175Z,7605
2022-08-05T12:18:18.701Z,6261
2022-08-05T12:20:17.594Z,4822
2022-08-05T12:20:27.362Z,5027
2022-08-05T12:22:20.046Z,6764
2022-08-05T12:23:18.699Z,7146
2022-08-05T12:24:18.706Z,7383
2022-08-05T12:25:18.695Z,5388
2022-08-05T12:27:21.478Z,5536
2022-08-05T12:28:18.720Z,5536
2022-08-05T12:29:22.638Z,6809
2022-08-05T12:30:18.699Z,7497
2022-08-05T12:32:18.997Z,5707
2022-08-05T12:33:27.792Z,7383
2022-08-05T12:34:20.811Z,7619
2022-08-05T12:35:21.464Z,5707
2022-08-05T12:37:21.714Z,7745
2022-08-05T12:38:18.837Z,7745
2022-08-05T12:39:18.845Z,7730
2022-08-05T12:40:20.859Z,5762
2022-08-05T12:42:19.007Z,7730
2022-08-05T12:43:20.509Z,7730
2022-08-05T12:44:21.544Z,7839
2022-08-05T12:45:18.724Z,5843
2022-08-05T12:47:19.026Z,7590
2022-08-05T12:48:27.076Z,6575
2022-08-05T12:49:19.005Z,7476
2022-08-05T12:50:19.724Z,5440
2022-08-05T12:52:24.037Z,5690
2022-08-05T12:53:18.702Z,5918
2022-08-05T12:54:23.177Z,7590
2022-08-05T12:55:21.915Z,7243
2022-08-05T12:57:19.009Z,5609
2022-08-05T12:58:39.601Z,5609
2022-08-05T12:59:20.929Z,7355
2022-08-05T13:01:59.190Z,5843
2022-08-05T13:02:19.035Z,7107
2022-08-05T13:03:18.755Z,7017
2022-08-05T13:04:21.132Z,7476
2022-08-05T13:05:18.727Z,5541
2022-08-05T13:07:27.009Z,7476
2022-08-05T13:08:18.843Z,5762
2022-08-05T13:09:28.156Z,7590
2022-08-05T13:10:19.479Z,7590
2022-08-05T13:12:19.021Z,7590
2022-08-05T13:14:04.165Z,5756
2022-08-05T13:14:19.644Z,7376
2022-08-05T13:15:24.253Z,7876
2022-08-05T13:17:20.427Z,7737
2022-08-05T13:18:18.729Z,7627
2022-08-05T13:19:18.817Z,7146
2022-08-05T13:20:23.264Z,7627
2022-08-05T13:22:27.668Z,7362
2022-08-05T13:23:22.358Z,7362
2022-08-05T13:24:27.470Z,5577
2022-08-05T13:25:22.106Z,7597
2022-08-05T13:27:22.979Z,7597
2022-08-05T13:28:18.730Z,7708
2022-08-05T13:29:18.928Z,5745
2022-08-05T13:30:33.264Z,7708
2022-08-05T13:32:21.534Z,5843
2022-08-05T13:34:20.694Z,7708
2022-08-05T13:34:20.703Z,5843
2022-08-05T13:35:22.049Z,6784
2022-08-05T13:37:27.141Z,5918
2022-08-05T13:38:20.640Z,7567
2022-08-05T13:39:24.242Z,5918
2022-08-05T13:40:27.566Z,7832
2022-08-05T13:42:19.014Z,7985
2022-08-05T13:43:21.916Z,7869
2022-08-05T13:44:18.741Z,5923
2022-08-05T13:45:20.832Z,7984
2022-08-05T13:47:35.368Z,7869
2022-08-05T13:48:56.718Z,7737
2022-08-05T13:49:18.848Z,7133
2022-08-05T13:50:18.716Z,7992
2022-08-05T13:52:19.015Z,7469
2022-08-05T13:53:18.827Z,5827
2022-08-05T13:54:20.905Z,7985
2022-08-05T13:55:40.632Z,5827
2022-08-05T13:57:19.029Z,7985
2022-08-05T13:58:23.319Z,7985
2022-08-05T13:59:19.916Z,7992
2022-08-05T14:00:18.867Z,5992
2022-08-05T14:02:19.832Z,5734
2022-08-05T14:03:18.771Z,7348
2022-08-05T14:04:18.721Z,7229
2022-08-05T14:05:19.490Z,7348
2022-08-05T14:07:25.299Z,7348
2022-08-05T14:08:20.672Z,5646
2022-08-05T14:09:18.726Z,7447
2022-08-05T14:10:28.307Z,7348
2022-08-05T14:12:32.045Z,7229
2022-08-05T14:13:18.730Z,5493
2022-08-05T14:14:23.403Z,7348
2022-08-05T14:16:06.641Z,5646
2022-08-05T14:17:19.035Z,5646
2022-08-05T14:18:23.553Z,7447
2022-08-05T14:19:18.726Z,7447
2022-08-05T14:20:18.761Z,5646
2022-08-05T14:22:19.030Z,5734
2022-08-05T14:23:19.347Z,7447
2022-08-05T14:24:19.374Z,5343
2022-08-05T14:25:19.320Z,7447
2022-08-05T14:27:19.019Z,7589
2022-08-05T14:28:26.672Z,7723
2022-08-05T14:29:18.763Z,5918
2022-08-05T14:30:19.023Z,7723
2022-08-05T14:32:26.760Z,7723
2022-08-05T14:33:22.519Z,5918
2022-08-05T14:34:18.775Z,7861
2022-08-05T14:35:20.587Z,5734
2022-08-05T14:37:19.041Z,6568
2022-08-05T14:38:27.922Z,7589
2022-08-05T14:39:23.090Z,7589
2022-08-05T14:40:18.749Z,5646
2022-08-05T14:42:19.804Z,7447
2022-08-05T14:43:18.859Z,7589
2022-08-05T14:44:20.141Z,7723
2022-08-05T14:45:18.792Z,5918
2022-08-05T14:47:24.025Z,5827
2022-08-05T14:48:25.667Z,5992
2022-08-05T14:49:18.746Z,7723
2022-08-05T14:50:19.415Z,5918
2022-08-05T14:52:36.538Z,5918
2022-08-05T14:53:18.741Z,5992
2022-08-05T14:54:27.193Z,7723
2022-08-05T14:55:18.777Z,7984
2022-08-05T14:57:19.050Z,5997
2022-08-05T14:58:18.744Z,7590
2022-08-05T14:59:18.853Z,7590
2022-08-05T15:00:19.880Z,7708
2022-08-05T15:02:19.056Z,5906
2022-08-05T15:03:18.741Z,7454
2022-08-05T15:04:20.392Z,7839
2022-08-05T15:05:18.892Z,7839
2022-08-05T15:08:04.634Z,5723
2022-08-05T15:08:38.154Z,7708
2022-08-05T15:09:50.447Z,5805
2022-08-05T15:10:18.754Z,7839
2022-08-05T15:12:19.047Z,5986
2022-08-05T15:13:18.748Z,7839
2022-08-05T15:14:20.346Z,5986
2022-08-05T15:15:18.764Z,7992
2022-08-05T15:17:45.313Z,7567
2022-08-05T15:18:18.789Z,7440
2022-08-05T15:19:23.683Z,7567
2022-08-05T15:20:24.741Z,7440
2022-08-05T15:22:19.054Z,6530
2022-08-05T15:23:18.882Z,6977
2022-08-05T15:24:18.786Z,7440
2022-08-05T15:25:23.370Z,5599
2022-08-05T15:27:19.052Z,7320
2022-08-05T15:28:18.922Z,5690
2022-08-05T15:29:18.792Z,7440
2022-08-05T15:30:18.758Z,5292
2022-08-05T15:32:19.051Z,6977
2022-08-05T15:33:21.966Z,5445
2022-08-05T15:34:32.688Z,6977
2022-08-05T15:35:18.790Z,7320
2022-08-05T15:38:08.827Z,7567
2022-08-05T15:38:35.270Z,5445
2022-08-05T15:40:40.919Z,7194
2022-08-05T15:40:42.407Z,7440
2022-08-05T15:42:28.819Z,6856
2022-08-05T15:43:19.972Z,5531
2022-08-05T15:44:18.854Z,7073
2022-08-05T15:45:18.959Z,6856
2022-08-05T15:47:19.087Z,7320
2022-08-05T15:48:18.893Z,7073
2022-08-05T15:49:26.480Z,7440
2022-08-05T15:50:18.797Z,7194
2022-08-05T15:52:29.827Z,6977
2022-08-05T15:53:18.787Z,5599
2022-08-05T15:54:18.899Z,5292
2022-08-05T15:55:18.861Z,7194
2022-08-05T15:57:19.102Z,5445
2022-08-05T15:58:18.771Z,6856
2022-08-05T15:59:20.178Z,6977
2022-08-05T16:00:26.567Z,5368
2022-08-05T16:02:19.614Z,6977
2022-08-05T16:03:18.794Z,5222
2022-08-05T16:04:18.794Z,6856
2022-08-05T16:05:18.781Z,6977
2022-08-05T16:07:19.069Z,6648
2022-08-05T16:08:18.805Z,6314
2022-08-05T16:09:18.797Z,5141
2022-08-05T16:10:23.254Z,6738
2022-08-05T16:12:19.775Z,5074
2022-08-05T16:13:19.232Z,6648
2022-08-05T16:14:18.807Z,6738
2022-08-05T16:15:18.905Z,6424
2022-08-05T16:17:19.103Z,5074
2022-08-05T16:18:18.899Z,6530
2022-08-05T16:19:25.765Z,4487
2022-08-05T16:20:19.724Z,5074
2022-08-05T16:22:19.103Z,6648
2022-08-05T16:23:18.809Z,5707
2022-08-05T16:24:35.883Z,4122
2022-08-05T16:25:18.894Z,5707
2022-08-05T16:27:19.079Z,5510
2022-08-05T16:28:18.796Z,4068
2022-08-05T16:29:20.106Z,4190
2022-08-05T16:30:23.525Z,5363
2022-08-05T16:32:23.598Z,4761